Terminal Aerodrome Forecast
Issued by NWS

Current Version | Previous Version | Graphics & Text | Print | Product List | Glossary On
Versions: 1 2 3 4 5 6 7 8 9 10 11 12 13 14 15 16 17 18 19
251
FTUS41 KPBZ 241120
TAFMGW
TAF
KMGW 241120Z 2412/2512 18006KT P6SM -RA OVC050
     FM241400 20008G18KT P6SM BKN100
     FM250900 21006KT P6SM BKN050=

USA.gov is the U.S. government's official web portal to all federal, state and local government web resources and services.